Time;durP1;ratioP1;P1;durP2;ratioP2;P2;SDS_P1;SDS_P2;PMS_P1;PMS_P2;Temp;Humidity;BMP_temperature;BMP_pressure;BME280_temperature;BME280_humidity;BME280_pressure;Samples;Min_cycle;Max_cycle;Signal;HPM_P1;HPM_P2
2021/05/21 00:00:22;;;;;;;;;;;13.60;79.10;;;;;;4334893;33;20052;-77
2021/05/21 00:03:12;;;;;;;;;;;13.50;79.10;;;;;;4334691;33;20017;-77
2021/05/21 00:05:45;;;;;;;;;;;13.50;79.20;;;;;;4347976;33;20001;-77
2021/05/21 00:08:18;;;;;;;;;;;13.50;79.40;;;;;;4334644;33;20001;-77
2021/05/21 00:10:51;;;;;;;;;;;13.50;79.40;;;;;;4347901;33;20078;-77
2021/05/21 00:13:27;;;;;;;;;;;13.50;79.40;;;;;;4347871;33;20040;-78
2021/05/21 00:15:56;;;;;;;;;;;13.60;79.50;;;;;;4348044;33;20009;-77
2021/05/21 00:18:34;;;;;;;;;;;13.60;79.50;;;;;;4347502;33;20060;-77
2021/05/21 00:21:09;;;;;;;;;;;13.50;79.40;;;;;;4347853;33;20444;-77
2021/05/21 00:23:44;;;;;;;;;;;13.50;79.40;;;;;;4334517;33;20016;-77
2021/05/21 00:26:20;;;;;;;;;;;13.60;79.40;;;;;;4322207;33;20053;-77
2021/05/21 00:28:50;;;;;;;;;;;13.60;79.40;;;;;;4334373;33;20001;-78
2021/05/21 00:31:22;;;;;;;;;;;13.60;79.50;;;;;;4321957;33;20006;-77
2021/05/21 00:33:55;;;;;;;;;;;13.60;79.50;;;;;;4347079;33;20065;-77
2021/05/21 00:36:28;;;;;;;;;;;13.60;79.40;;;;;;4334384;33;20028;-77
2021/05/21 00:39:03;;;;;;;;;;;13.60;79.30;;;;;;4334422;33;20010;-77
2021/05/21 00:41:35;;;;;;;;;;;13.60;79.40;;;;;;4334088;33;20061;-77
2021/05/21 00:44:07;;;;;;;;;;;13.60;79.30;;;;;;4347458;33;20021;-77
2021/05/21 00:46:41;;;;;;;;;;;13.60;79.50;;;;;;4322210;33;20060;-77
2021/05/21 00:49:22;;;;;;;;;;;13.60;79.50;;;;;;4333712;33;20411;-77
2021/05/21 00:51:57;;;;;;;;;;;13.60;79.40;;;;;;4334077;33;20001;-77
2021/05/21 00:54:27;;;;;;;;;;;13.60;79.50;;;;;;4334162;33;20072;-77
2021/05/21 00:57:19;;;;;;;;;;;13.60;79.50;;;;;;4347331;33;20017;-77
2021/05/21 00:59:51;;;;;;;;;;;13.60;79.50;;;;;;4333991;33;20012;-77
2021/05/21 01:02:30;;;;;;;;;;;13.60;80.30;;;;;;4321508;33;20320;-77
2021/05/21 01:05:03;;;;;;;;;;;13.60;79.50;;;;;;4347170;33;20053;-78
2021/05/21 01:07:52;;;;;;;;;;;13.50;79.40;;;;;;4347146;33;20076;-77
2021/05/21 01:10:22;;;;;;;;;;;13.60;79.60;;;;;;4347151;33;20537;-78
2021/05/21 01:12:55;;;;;;;;;;;13.50;79.50;;;;;;4333570;33;20072;-77
2021/05/21 01:15:29;;;;;;;;;;;13.50;79.50;;;;;;4321521;33;20054;-77
2021/05/21 01:18:02;;;;;;;;;;;13.50;79.40;;;;;;4347034;33;19997;-78
2021/05/21 01:20:47;;;;;;;;;;;13.50;79.60;;;;;;4346506;33;20009;-77
2021/05/21 01:23:16;;;;;;;;;;;13.50;79.60;;;;;;4346987;33;20025;-78
2021/05/21 01:25:51;;;;;;;;;;;13.50;79.60;;;;;;4346917;33;20013;-77
2021/05/21 01:28:24;;;;;;;;;;;13.40;79.40;;;;;;4333493;33;20052;-78
2021/05/21 01:30:54;;;;;;;;;;;13.50;79.40;;;;;;4333912;33;20044;-77
2021/05/21 01:33:29;;;;;;;;;;;13.50;79.20;;;;;;4320968;33;20006;-77
2021/05/21 01:36:02;;;;;;;;;;;13.50;79.20;;;;;;4333192;33;19997;-77
2021/05/21 01:38:38;;;;;;;;;;;13.50;79.20;;;;;;4346801;33;20430;-76
2021/05/21 01:41:08;;;;;;;;;;;13.50;79.10;;;;;;4321312;33;20053;-77
2021/05/21 01:43:41;;;;;;;;;;;13.50;79.10;;;;;;4321399;33;19997;-77
2021/05/21 01:46:12;;;;;;;;;;;13.50;79.00;;;;;;4333777;33;20063;-77
2021/05/21 01:48:47;;;;;;;;;;;13.50;79.20;;;;;;4346680;33;20031;-77
2021/05/21 01:51:17;;;;;;;;;;;13.50;79.00;;;;;;4333561;33;20029;-77
2021/05/21 01:53:47;;;;;;;;;;;13.50;79.00;;;;;;4333410;33;20015;-77
2021/05/21 01:56:20;;;;;;;;;;;13.50;79.00;;;;;;4333071;33;20446;-77
2021/05/21 01:58:52;;;;;;;;;;;13.60;79.10;;;;;;4333434;33;20049;-77
2021/05/21 02:01:22;;;;;;;;;;;13.40;79.00;;;;;;4346851;33;20422;-77
2021/05/21 02:03:55;;;;;;;;;;;13.50;78.90;;;;;;4333099;33;20004;-77
2021/05/21 02:06:26;;;;;;;;;;;13.50;79.00;;;;;;4346869;33;20035;-77
2021/05/21 02:09:01;;;;;;;;;;;13.50;78.80;;;;;;4346431;33;20013;-77
2021/05/21 02:11:28;;;;;;;;;;;13.50;79.00;;;;;;4346382;33;20025;-77
2021/05/21 02:14:05;;;;;;;;;;;13.40;78.80;;;;;;4346654;33;20049;-77
2021/05/21 02:16:32;;;;;;;;;;;13.40;78.80;;;;;;4346561;33;20064;-77
2021/05/21 02:19:08;;;;;;;;;;;13.40;79.60;;;;;;4320925;33;20350;-77
2021/05/21 02:21:46;;;;;;;;;;;13.40;78.80;;;;;;4333786;33;20005;-78
2021/05/21 02:24:22;;;;;;;;;;;13.40;78.80;;;;;;4333370;33;20061;-77
2021/05/21 02:26:52;;;;;;;;;;;13.40;78.90;;;;;;4346547;33;20057;-77
2021/05/21 02:29:25;;;;;;;;;;;13.40;78.90;;;;;;4332869;33;20001;-77
2021/05/21 02:31:59;;;;;;;;;;;13.40;78.90;;;;;;4332684;33;20404;-77
2021/05/21 02:34:37;;;;;;;;;;;13.40;78.80;;;;;;4346643;33;20466;-78
2021/05/21 02:37:05;;;;;;;;;;;13.40;78.90;;;;;;4332973;33;20021;-77
2021/05/21 02:39:37;;;;;;;;;;;13.40;78.80;;;;;;4346283;33;20025;-77
2021/05/21 02:42:11;;;;;;;;;;;13.40;78.80;;;;;;4333029;33;20038;-77
2021/05/21 02:44:44;;;;;;;;;;;13.40;78.90;;;;;;4333144;33;20057;-78
2021/05/21 02:47:17;;;;;;;;;;;13.40;78.90;;;;;;4332978;33;20128;-77
2021/05/21 02:49:47;;;;;;;;;;;13.40;78.90;;;;;;4346370;33;20020;-77
2021/05/21 02:52:17;;;;;;;;;;;13.40;78.90;;;;;;4333610;33;20009;-77
2021/05/21 02:54:52;;;;;;;;;;;13.40;79.00;;;;;;4333065;33;20020;-77
2021/05/21 02:57:27;;;;;;;;;;;13.40;79.00;;;;;;4347075;33;20056;-77
2021/05/21 02:59:57;;;;;;;;;;;13.50;79.00;;;;;;4348884;33;20069;-78
2021/05/21 03:02:27;;;;;;;;;;;13.40;79.00;;;;;;4323042;33;20032;-77
2021/05/21 03:05:03;;;;;;;;;;;13.40;79.00;;;;;;4323263;33;20002;-77
2021/05/21 03:07:30;;;;;;;;;;;13.40;79.10;;;;;;4335446;33;20021;-77
2021/05/21 03:10:06;;;;;;;;;;;13.40;79.30;;;;;;4335673;33;20049;-78
2021/05/21 03:12:42;;;;;;;;;;;13.30;79.30;;;;;;4335537;33;20088;-77
2021/05/21 03:15:12;;;;;;;;;;;13.30;79.30;;;;;;4348753;33;20061;-77
2021/05/21 03:17:44;;;;;;;;;;;13.30;79.20;;;;;;4348729;33;20006;-77
2021/05/21 03:20:23;;;;;;;;;;;13.40;79.30;;;;;;4348751;33;20473;-77
2021/05/21 03:22:50;;;;;;;;;;;13.40;79.30;;;;;;4323161;33;20061;-77
2021/05/21 03:25:23;;;;;;;;;;;13.30;79.20;;;;;;4348459;33;20012;-77
2021/05/21 03:27:56;;;;;;;;;;;13.40;79.30;;;;;;4335157;33;20001;-77
2021/05/21 03:30:26;;;;;;;;;;;13.40;79.40;;;;;;4335071;33;20001;-77
2021/05/21 03:32:53;;;;;;;;;;;13.30;79.40;;;;;;4348528;33;20428;-77
2021/05/21 03:35:24;;;;;;;;;;;13.40;79.40;;;;;;4335167;33;20080;-77
2021/05/21 03:37:59;;;;;;;;;;;13.30;79.50;;;;;;4335190;33;20108;-77
2021/05/21 03:40:30;;;;;;;;;;;13.30;79.50;;;;;;4334499;33;20008;-77
2021/05/21 03:43:02;;;;;;;;;;;13.30;79.50;;;;;;4335116;33;20043;-76
2021/05/21 03:45:35;;;;;;;;;;;13.30;79.50;;;;;;4348044;33;20019;-77
2021/05/21 03:48:03;;;;;;;;;;;13.30;79.60;;;;;;4334981;33;20060;-77
2021/05/21 03:50:35;;;;;;;;;;;13.30;79.70;;;;;;4334693;33;20346;-77
2021/05/21 03:53:02;;;;;;;;;;;13.30;79.70;;;;;;4348404;33;20009;-77
2021/05/21 03:55:30;;;;;;;;;;;13.30;79.60;;;;;;4334723;33;20050;-77
2021/05/21 03:58:02;;;;;;;;;;;13.30;79.60;;;;;;4334971;33;20056;-77
2021/05/21 04:00:35;;;;;;;;;;;13.20;79.60;;;;;;4346840;33;19997;-77
2021/05/21 04:03:10;;;;;;;;;;;13.20;79.70;;;;;;4333990;33;20057;-77
2021/05/21 04:05:43;;;;;;;;;;;13.20;79.60;;;;;;4334242;33;20446;-77
2021/05/21 04:08:13;;;;;;;;;;;13.30;79.70;;;;;;4334734;33;20073;-77
2021/05/21 04:10:48;;;;;;;;;;;13.20;79.70;;;;;;4334738;33;20064;-78
2021/05/21 04:13:21;;;;;;;;;;;13.20;79.80;;;;;;4334420;33;20390;-77
2021/05/21 04:15:51;;;;;;;;;;;13.20;79.80;;;;;;4334312;33;20462;-77
2021/05/21 04:18:21;;;;;;;;;;;13.20;79.80;;;;;;4334028;33;20015;-78
2021/05/21 04:20:59;;;;;;;;;;;13.20;80.00;;;;;;4334883;33;20060;-77
2021/05/21 04:23:26;;;;;;;;;;;13.20;80.10;;;;;;4334395;33;20012;-78
2021/05/21 04:25:58;;;;;;;;;;;13.10;80.20;;;;;;4334253;33;20069;-78
2021/05/21 04:28:31;;;;;;;;;;;13.10;80.20;;;;;;4333968;33;20024;-77
2021/05/21 04:31:00;;;;;;;;;;;13.20;80.20;;;;;;4334475;33;20005;-78
2021/05/21 04:33:30;;;;;;;;;;;13.20;80.30;;;;;;4334872;33;20108;-77
2021/05/21 04:36:01;;;;;;;;;;;13.20;80.30;;;;;;4333952;33;20017;-77
2021/05/21 04:38:36;;;;;;;;;;;13.20;80.30;;;;;;4334176;33;20044;-77
2021/05/21 04:41:15;;;;;;;;;;;13.20;80.40;;;;;;4334020;33;20009;-77
2021/05/21 04:43:46;;;;;;;;;;;13.20;80.40;;;;;;4334268;33;20061;-77
2021/05/21 04:46:21;;;;;;;;;;;13.20;80.40;;;;;;4334026;33;20057;-77
2021/05/21 04:48:50;;;;;;;;;;;13.20;80.70;;;;;;4334250;33;20005;-77
2021/05/21 04:51:21;;;;;;;;;;;13.10;80.70;;;;;;4347362;33;20126;-78
2021/05/21 04:53:51;;;;;;;;;;;13.10;80.80;;;;;;4333736;33;20019;-78
2021/05/21 04:56:20;;;;;;;;;;;13.10;80.60;;;;;;4333961;33;20017;-78
2021/05/21 04:58:56;;;;;;;;;;;13.20;80.70;;;;;;4333550;33;20055;-78
2021/05/21 05:01:24;;;;;;;;;;;13.10;80.50;;;;;;4333749;33;20012;-77
2021/05/21 05:03:59;;;;;;;;;;;13.20;80.50;;;;;;4333790;33;19994;-77
2021/05/21 05:06:32;;;;;;;;;;;13.20;80.40;;;;;;4333578;33;20057;-77
2021/05/21 05:08:59;;;;;;;;;;;13.20;80.40;;;;;;4333793;33;20035;-77
2021/05/21 05:11:41;;;;;;;;;;;13.20;80.50;;;;;;4333575;33;20496;-77
2021/05/21 05:14:11;;;;;;;;;;;13.10;80.60;;;;;;4346894;33;20331;-78
2021/05/21 05:16:47;;;;;;;;;;;13.20;80.70;;;;;;4346583;33;20013;-78
2021/05/21 05:19:17;;;;;;;;;;;13.10;80.80;;;;;;4333823;33;20005;-77
2021/05/21 05:21:48;;;;;;;;;;;13.10;80.80;;;;;;4321209;33;20001;-77
2021/05/21 05:24:19;;;;;;;;;;;13.10;81.00;;;;;;4321343;33;19998;-78
2021/05/21 05:26:50;;;;;;;;;;;13.00;81.00;;;;;;4333483;33;20015;-77
2021/05/21 05:29:21;;;;;;;;;;;13.10;81.20;;;;;;4321187;33;20049;-76
2021/05/21 05:31:50;;;;;;;;;;;13.10;81.20;;;;;;4346989;33;20017;-76
2021/05/21 05:34:23;;;;;;;;;;;13.00;81.10;;;;;;4333576;33;20019;-77
2021/05/21 05:36:55;;;;;;;;;;;13.00;81.20;;;;;;4346829;33;20011;-76
2021/05/21 05:39:28;;;;;;;;;;;13.00;81.10;;;;;;4333473;33;20040;-77
2021/05/21 05:41:56;;;;;;;;;;;13.00;81.10;;;;;;4346741;33;20038;-77
2021/05/21 05:44:27;;;;;;;;;;;13.00;81.30;;;;;;4320923;33;20072;-76
2021/05/21 05:47:00;;;;;;;;;;;13.00;81.20;;;;;;4333697;33;20030;-76
2021/05/21 05:49:30;;;;;;;;;;;13.00;81.30;;;;;;4321409;33;20012;-76
2021/05/21 05:52:02;;;;;;;;;;;13.00;81.30;;;;;;4346578;33;20013;-75
2021/05/21 05:54:32;;;;;;;;;;;13.00;81.20;;;;;;4333557;33;20391;-76
2021/05/21 05:57:02;;;;;;;;;;;13.10;81.30;;;;;;4333142;33;20033;-75
2021/05/21 05:59:39;;;;;;;;;;;13.10;81.30;;;;;;4333834;33;20013;-75
2021/05/21 06:02:07;;;;;;;;;;;13.00;81.40;;;;;;4346359;33;20402;-75
2021/05/21 06:04:37;;;;;;;;;;;13.10;81.50;;;;;;4333341;33;20064;-75
2021/05/21 06:07:13;;;;;;;;;;;13.00;81.50;;;;;;4321628;33;20044;-75
2021/05/21 06:09:43;;;;;;;;;;;13.00;81.60;;;;;;4333442;33;20019;-75
2021/05/21 06:12:13;;;;;;;;;;;13.00;81.70;;;;;;4321076;33;20334;-75
2021/05/21 06:14:46;;;;;;;;;;;13.00;82.00;;;;;;4333502;33;20035;-75
2021/05/21 06:17:17;;;;;;;;;;;13.00;81.80;;;;;;4333172;33;20069;-75
2021/05/21 06:19:52;;;;;;;;;;;13.00;81.70;;;;;;4346378;33;20020;-75
2021/05/21 06:22:19;;;;;;;;;;;13.00;81.60;;;;;;4333262;33;20052;-75
2021/05/21 06:25:05;;;;;;;;;;;13.00;81.30;;;;;;4321169;33;20005;-75
2021/05/21 06:27:36;;;;;;;;;;;13.00;81.30;;;;;;4346503;33;20019;-75
2021/05/21 06:30:08;;;;;;;;;;;13.00;81.40;;;;;;4333294;33;20084;-75
2021/05/21 06:32:43;;;;;;;;;;;13.00;81.20;;;;;;4334203;33;20060;-75
2021/05/21 06:35:18;;;;;;;;;;;13.10;80.90;;;;;;4335744;33;20386;-76
2021/05/21 06:37:48;;;;;;;;;;;13.00;81.00;;;;;;4335801;33;20020;-75
2021/05/21 06:40:27;;;;;;;;;;;13.00;81.00;;;;;;4336440;33;20009;-75
2021/05/21 06:42:57;;;;;;;;;;;13.00;80.60;;;;;;4336084;33;20024;-75
2021/05/21 06:45:27;;;;;;;;;;;13.00;80.50;;;;;;4349227;33;20010;-75
2021/05/21 06:48:00;;;;;;;;;;;13.00;80.50;;;;;;4348998;33;20023;-75
2021/05/21 06:50:33;;;;;;;;;;;13.00;80.20;;;;;;4335725;33;20009;-75
2021/05/21 06:53:09;;;;;;;;;;;13.00;80.40;;;;;;4335471;33;20053;-75
2021/05/21 06:55:42;;;;;;;;;;;13.00;80.40;;;;;;4349078;33;20020;-75
2021/05/21 06:58:12;;;;;;;;;;;13.00;79.30;;;;;;4349008;33;20013;-76
2021/05/21 07:00:45;;;;;;;;;;;13.00;80.00;;;;;;4335137;33;20499;-76
2021/05/21 07:03:16;;;;;;;;;;;13.00;79.90;;;;;;4348366;33;20458;-76
2021/05/21 07:05:50;;;;;;;;;;;13.00;79.60;;;;;;4335507;33;20034;-76
2021/05/21 07:08:20;;;;;;;;;;;13.00;79.40;;;;;;4348865;33;20407;-76
2021/05/21 07:10:53;;;;;;;;;;;12.90;79.30;;;;;;4348679;33;20443;-75
2021/05/21 07:13:29;;;;;;;;;;;12.90;79.10;;;;;;4348785;33;20494;-76
2021/05/21 07:16:01;;;;;;;;;;;12.90;79.20;;;;;;4348575;33;20017;-76
2021/05/21 07:18:37;;;;;;;;;;;12.90;78.60;;;;;;4348602;33;20016;-76
2021/05/21 07:21:04;;;;;;;;;;;12.90;78.60;;;;;;4335413;33;20418;-75
2021/05/21 07:23:45;;;;;;;;;;;12.90;78.40;;;;;;4336412;33;20341;-75
2021/05/21 07:26:21;;;;;;;;;;;12.90;78.40;;;;;;4335313;33;20104;-76
2021/05/21 07:28:57;;;;;;;;;;;12.90;78.70;;;;;;4335225;33;20014;-76
2021/05/21 07:31:29;;;;;;;;;;;12.90;78.60;;;;;;4322476;33;20049;-77
2021/05/21 07:34:03;;;;;;;;;;;12.90;78.90;;;;;;4335252;33;20017;-76
2021/05/21 07:36:35;;;;;;;;;;;12.90;78.10;;;;;;4334904;33;20019;-76
2021/05/21 07:39:05;;;;;;;;;;;12.90;78.10;;;;;;4348456;33;20139;-77
2021/05/21 07:41:38;;;;;;;;;;;12.90;78.20;;;;;;4334759;33;20064;-76
2021/05/21 07:44:15;;;;;;;;;;;12.90;77.70;;;;;;4322649;33;20061;-76
2021/05/21 07:46:46;;;;;;;;;;;13.00;78.50;;;;;;4322849;33;20056;-76
2021/05/21 07:49:25;;;;;;;;;;;13.00;78.10;;;;;;4334658;33;20482;-76
2021/05/21 07:51:56;;;;;;;;;;;13.00;78.20;;;;;;4348129;33;20060;-76
2021/05/21 07:54:28;;;;;;;;;;;13.10;78.10;;;;;;4335296;33;20013;-76
2021/05/21 07:57:00;;;;;;;;;;;13.10;78.10;;;;;;4348145;33;20004;-76
2021/05/21 07:59:33;;;;;;;;;;;13.10;77.70;;;;;;4335246;33;20057;-76
2021/05/21 08:02:06;;;;;;;;;;;13.10;77.90;;;;;;4334668;33;20069;-76
2021/05/21 08:04:42;;;;;;;;;;;13.20;77.10;;;;;;4347754;33;20061;-77
2021/05/21 08:07:09;;;;;;;;;;;13.10;76.90;;;;;;4334798;33;20015;-76
2021/05/21 08:09:38;;;;;;;;;;;13.20;76.50;;;;;;4334782;33;20424;-76
2021/05/21 08:12:10;;;;;;;;;;;13.20;77.20;;;;;;4322373;33;20001;-76
2021/05/21 08:14:37;;;;;;;;;;;13.10;76.40;;;;;;4334528;33;20040;-77
2021/05/21 08:17:06;;;;;;;;;;;13.20;76.50;;;;;;4322156;33;20421;-76
2021/05/21 08:19:50;;;;;;;;;;;13.20;76.60;;;;;;4323207;33;20103;-77
2021/05/21 08:22:27;;;;;;;;;;;13.20;76.60;;;;;;4322645;33;20330;-76
2021/05/21 08:25:05;;;;;;;;;;;13.20;76.70;;;;;;4322347;33;20001;-76
2021/05/21 08:27:37;;;;;;;;;;;13.20;76.00;;;;;;4334073;33;20060;-76
2021/05/21 08:30:10;;;;;;;;;;;13.20;76.10;;;;;;4347716;33;20015;-76
2021/05/21 08:32:43;;;;;;;;;;;13.30;76.60;;;;;;4334429;33;20013;-75
2021/05/21 08:35:10;;;;;;;;;;;13.30;75.50;;;;;;4334212;33;20020;-75
2021/05/21 08:37:44;;;;;;;;;;;13.30;75.30;;;;;;4334588;33;20013;-75
2021/05/21 08:40:22;;;;;;;;;;;13.30;75.20;;;;;;4347569;33;20053;-76
2021/05/21 08:42:58;;;;;;;;;;;13.30;74.50;;;;;;4321916;33;20432;-75
2021/05/21 08:45:28;;;;;;;;;;;13.30;74.70;;;;;;4321871;33;20011;-77
2021/05/21 08:47:55;;;;;;;;;;;13.30;74.10;;;;;;4347175;33;20064;-75
2021/05/21 08:50:37;;;;;;;;;;;13.30;74.20;;;;;;4347363;33;20025;-76
2021/05/21 08:53:09;;;;;;;;;;;13.20;73.30;;;;;;4321825;33;20036;-75
2021/05/21 08:55:39;;;;;;;;;;;13.20;74.00;;;;;;4333407;33;20053;-75
2021/05/21 08:58:14;;;;;;;;;;;13.20;73.70;;;;;;4333945;33;20020;-75
2021/05/21 09:00:43;;;;;;;;;;;13.30;74.90;;;;;;4321394;33;20006;-75
2021/05/21 09:03:26;;;;;;;;;;;13.30;74.10;;;;;;4346945;33;20009;-74
2021/05/21 09:06:12;;;;;;;;;;;13.30;74.60;;;;;;4333725;33;20068;-75
2021/05/21 09:08:48;;;;;;;;;;;13.40;74.10;;;;;;4333565;33;20005;-74
2021/05/21 09:11:33;;;;;;;;;;;13.40;73.50;;;;;;4346992;33;20025;-75
2021/05/21 09:14:00;;;;;;;;;;;13.40;73.30;;;;;;4333808;33;20022;-74
2021/05/21 09:16:40;;;;;;;;;;;13.40;73.10;;;;;;4333591;33;20045;-75
2021/05/21 09:19:17;;;;;;;;;;;13.40;72.50;;;;;;4321771;33;20020;-74
2021/05/21 09:22:03;;;;;;;;;;;13.40;73.20;;;;;;4333725;33;20072;-76
2021/05/21 09:24:42;;;;;;;;;;;13.40;70.60;;;;;;4333791;33;20031;-75
2021/05/21 09:27:10;;;;;;;;;;;13.40;71.70;;;;;;4333750;33;20024;-75
2021/05/21 09:29:50;;;;;;;;;;;13.40;71.90;;;;;;4346955;33;20009;-74
2021/05/21 09:32:27;;;;;;;;;;;13.50;72.10;;;;;;4346517;33;20021;-75
2021/05/21 09:34:58;;;;;;;;;;;13.50;71.80;;;;;;4333040;33;20023;-75
2021/05/21 09:37:28;;;;;;;;;;;13.60;70.90;;;;;;4346692;33;20073;-75
2021/05/21 09:40:07;;;;;;;;;;;13.60;70.90;;;;;;4333459;33;20012;-76
2021/05/21 09:42:54;;;;;;;;;;;13.60;70.70;;;;;;4333648;33;20478;-75
2021/05/21 09:45:32;;;;;;;;;;;13.60;70.90;;;;;;4346858;33;20048;-77
2021/05/21 09:48:09;;;;;;;;;;;13.70;71.10;;;;;;4333292;33;20006;-76
2021/05/21 09:50:47;;;;;;;;;;;13.70;71.10;;;;;;4346938;33;20023;-76
2021/05/21 09:53:25;;;;;;;;;;;13.70;70.70;;;;;;4333543;33;20013;-75
2021/05/21 09:55:55;;;;;;;;;;;13.70;70.40;;;;;;4346697;33;20093;-75
2021/05/21 09:59:02;;;;;;;;;;;13.70;70.20;;;;;;4333145;33;20342;-78
2021/05/21 10:01:32;;;;;;;;;;;13.70;70.90;;;;;;4333312;33;20369;-75
2021/05/21 10:04:08;;;;;;;;;;;13.70;69.20;;;;;;4333493;33;20013;-75
2021/05/21 10:06:47;;;;;;;;;;;13.70;68.90;;;;;;4346744;33;20018;-74
2021/05/21 10:09:22;;;;;;;;;;;13.70;69.70;;;;;;4336244;33;20017;-75
2021/05/21 10:12:00;;;;;;;;;;;13.80;69.80;;;;;;4349736;33;20013;-75
2021/05/21 10:14:33;;;;;;;;;;;13.80;70.00;;;;;;4324316;33;20057;-79
2021/05/21 10:17:14;;;;;;;;;;;13.80;70.80;;;;;;4336744;33;20111;-75
2021/05/21 10:19:47;;;;;;;;;;;13.80;70.50;;;;;;4335981;33;20006;-74
2021/05/21 10:22:21;;;;;;;;;;;13.90;69.70;;;;;;4336563;33;20048;-77
2021/05/21 10:24:55;;;;;;;;;;;13.90;70.10;;;;;;4336347;33;20057;-74
2021/05/21 10:27:31;;;;;;;;;;;13.80;70.30;;;;;;4336140;33;20078;-75
2021/05/21 10:30:07;;;;;;;;;;;13.90;71.40;;;;;;4336210;33;20065;-74
2021/05/21 10:32:38;;;;;;;;;;;14.00;70.70;;;;;;4336326;33;20443;-74
2021/05/21 10:35:23;;;;;;;;;;;14.00;68.60;;;;;;4349502;33;20001;-76
2021/05/21 10:38:18;;;;;;;;;;;14.00;69.40;;;;;;4349280;33;20045;-75
2021/05/21 10:41:07;;;;;;;;;;;13.90;68.90;;;;;;4336522;33;20019;-75
2021/05/21 10:43:47;;;;;;;;;;;13.90;69.00;;;;;;4335923;33;20009;-75
2021/05/21 10:46:18;;;;;;;;;;;13.90;69.30;;;;;;4349243;33;20049;-74
2021/05/21 10:48:57;;;;;;;;;;;14.00;69.90;;;;;;4335702;33;20044;-74
2021/05/21 10:51:31;;;;;;;;;;;14.10;68.90;;;;;;4336057;33;20013;-76
2021/05/21 10:54:17;;;;;;;;;;;14.10;68.70;;;;;;4349231;33;20048;-77
2021/05/21 10:56:55;;;;;;;;;;;14.20;68.80;;;;;;4335880;33;20076;-77
2021/05/21 10:59:41;;;;;;;;;;;14.30;68.60;;;;;;4349002;33;20027;-76
2021/05/21 11:02:12;;;;;;;;;;;14.40;68.10;;;;;;4334998;33;20065;-78
2021/05/21 11:04:43;;;;;;;;;;;14.50;68.00;;;;;;4335754;33;20418;-76
2021/05/21 11:07:33;;;;;;;;;;;14.50;67.20;;;;;;4335321;33;20046;-76
2021/05/21 11:10:01;;;;;;;;;;;14.60;67.30;;;;;;4349065;33;20391;-76
2021/05/21 11:13:04;;;;;;;;;;;14.60;67.00;;;;;;4348496;33;20033;-75
2021/05/21 11:16:00;;;;;;;;;;;14.60;66.40;;;;;;4324166;33;20390;-75
2021/05/21 11:18:34;;;;;;;;;;;14.70;66.10;;;;;;4346663;33;20061;-75
2021/05/21 11:21:01;;;;;;;;;;;14.70;66.20;;;;;;4335721;33;20021;-75
2021/05/21 11:23:52;;;;;;;;;;;14.70;66.30;;;;;;4323363;33;20023;-75
2021/05/21 11:26:25;;;;;;;;;;;14.80;66.60;;;;;;4341120;33;20081;-77
2021/05/21 11:28:56;;;;;;;;;;;14.90;66.40;;;;;;4323287;33;20035;-76
2021/05/21 11:31:30;;;;;;;;;;;15.00;66.10;;;;;;4335381;33;20139;-75
2021/05/21 11:34:01;;;;;;;;;;;15.00;65.60;;;;;;4322585;33;20072;-75
2021/05/21 11:36:34;;;;;;;;;;;15.00;65.20;;;;;;4335086;33;19998;-76
2021/05/21 11:39:10;;;;;;;;;;;15.00;64.60;;;;;;4334951;33;20057;-76
2021/05/21 11:41:44;;;;;;;;;;;15.00;64.40;;;;;;4334940;33;19993;-76
2021/05/21 11:44:18;;;;;;;;;;;15.10;64.50;;;;;;4322992;33;20066;-76
2021/05/21 11:46:50;;;;;;;;;;;15.00;63.30;;;;;;4348294;33;20061;-76
2021/05/21 11:49:23;;;;;;;;;;;15.00;64.20;;;;;;4348319;33;20064;-77
2021/05/21 11:52:01;;;;;;;;;;;15.10;64.50;;;;;;4334851;33;20009;-77
2021/05/21 11:54:34;;;;;;;;;;;15.10;64.10;;;;;;4334640;33;20072;-76
2021/05/21 11:57:04;;;;;;;;;;;15.10;62.20;;;;;;4322727;33;20076;-77
2021/05/21 11:59:31;;;;;;;;;;;15.10;62.20;;;;;;4334909;33;20056;-75
2021/05/21 12:02:08;;;;;;;;;;;15.20;62.20;;;;;;4334781;33;20465;-76
2021/05/21 12:04:40;;;;;;;;;;;15.30;62.40;;;;;;4334477;33;20053;-76
2021/05/21 12:07:16;;;;;;;;;;;15.20;62.30;;;;;;4335105;33;20362;-77
2021/05/21 12:10:02;;;;;;;;;;;15.30;62.90;;;;;;4334582;33;20065;-76
2021/05/21 12:12:33;;;;;;;;;;;15.20;63.00;;;;;;4334358;33;20395;-77
2021/05/21 12:15:08;;;;;;;;;;;15.30;63.40;;;;;;4334726;33;20362;-77
2021/05/21 12:17:38;;;;;;;;;;;15.30;63.70;;;;;;4334945;33;20420;-76
2021/05/21 12:20:08;;;;;;;;;;;15.40;62.60;;;;;;4334488;33;20048;-76
2021/05/21 12:22:42;;;;;;;;;;;15.40;62.10;;;;;;4334587;33;20009;-76
2021/05/21 12:25:23;;;;;;;;;;;15.40;62.80;;;;;;4322813;33;20032;-76
2021/05/21 12:27:50;;;;;;;;;;;15.50;63.10;;;;;;4347785;33;20061;-75
2021/05/21 12:30:23;;;;;;;;;;;15.50;63.10;;;;;;4321218;33;20020;-74
2021/05/21 12:32:56;;;;;;;;;;;15.50;63.20;;;;;;4347533;33;20374;-76
2021/05/21 12:35:40;;;;;;;;;;;15.50;62.10;;;;;;4334382;33;20019;-76
2021/05/21 12:38:18;;;;;;;;;;;15.50;62.20;;;;;;4334756;33;20023;-79
2021/05/21 12:40:49;;;;;;;;;;;15.50;62.90;;;;;;4347592;33;20005;-75
2021/05/21 12:43:19;;;;;;;;;;;15.60;61.60;;;;;;4347577;33;20021;-77
2021/05/21 12:46:03;;;;;;;;;;;15.60;60.00;;;;;;4347382;33;20025;-76
2021/05/21 12:48:39;;;;;;;;;;;15.60;59.90;;;;;;4347494;33;20406;-76
2021/05/21 12:51:34;;;;;;;;;;;15.70;60.30;;;;;;4333786;33;20001;-77
2021/05/21 12:54:40;;;;;;;;;;;15.80;60.70;;;;;;4331365;33;20044;-76
2021/05/21 12:57:10;;;;;;;;;;;15.80;59.80;;;;;;4324187;33;20425;-76
2021/05/21 12:59:44;;;;;;;;;;;15.80;59.90;;;;;;4321922;33;20311;-76
2021/05/21 13:02:15;;;;;;;;;;;15.70;60.70;;;;;;4333835;33;20017;-76
2021/05/21 13:05:00;;;;;;;;;;;15.80;60.90;;;;;;4333667;33;20040;-76
2021/05/21 13:07:31;;;;;;;;;;;15.80;60.90;;;;;;4347402;33;20005;-76
2021/05/21 13:10:09;;;;;;;;;;;15.90;60.30;;;;;;4334215;33;20060;-77
2021/05/21 13:12:46;;;;;;;;;;;15.80;60.20;;;;;;4347098;33;20008;-77
2021/05/21 13:15:17;;;;;;;;;;;15.70;59.40;;;;;;4333861;33;20056;-76
2021/05/21 13:17:50;;;;;;;;;;;15.70;60.40;;;;;;4334248;33;20043;-76
2021/05/21 13:20:35;;;;;;;;;;;15.80;60.90;;;;;;4322030;33;20073;-77
2021/05/21 13:23:12;;;;;;;;;;;15.90;59.90;;;;;;4321048;33;19998;-76
2021/05/21 13:25:42;;;;;;;;;;;15.90;59.50;;;;;;4333688;33;20021;-77
2021/05/21 13:28:18;;;;;;;;;;;15.90;58.90;;;;;;4346835;33;20061;-77
2021/05/21 13:30:48;;;;;;;;;;;15.90;59.50;;;;;;4333407;33;20429;-77
2021/05/21 13:33:21;;;;;;;;;;;16.00;59.80;;;;;;4346382;33;20358;-77
2021/05/21 13:35:57;;;;;;;;;;;16.00;59.70;;;;;;4346753;33;20002;-78
2021/05/21 13:38:32;;;;;;;;;;;16.00;58.70;;;;;;4333502;33;20013;-79
2021/05/21 13:41:07;;;;;;;;;;;16.00;58.20;;;;;;4333169;33;20061;-76
2021/05/21 13:43:41;;;;;;;;;;;16.00;59.30;;;;;;4333636;33;20064;-77
2021/05/21 13:46:15;;;;;;;;;;;16.00;59.30;;;;;;4346853;33;20023;-76
2021/05/21 13:48:51;;;;;;;;;;;16.10;59.10;;;;;;4321286;33;19997;-78
2021/05/21 13:51:27;;;;;;;;;;;16.10;59.30;;;;;;4333374;33;20002;-77
2021/05/21 13:53:59;;;;;;;;;;;16.10;59.30;;;;;;4346686;33;20394;-76
2021/05/21 13:56:54;;;;;;;;;;;16.10;57.60;;;;;;4346679;33;20043;-76
2021/05/21 13:59:27;;;;;;;;;;;16.00;58.50;;;;;;4333506;33;20345;-77
2021/05/21 14:02:08;;;;;;;;;;;15.80;61.40;;;;;;4346398;33;20009;-76
2021/05/21 14:04:44;;;;;;;;;;;15.80;62.50;;;;;;4332731;33;20044;-75
2021/05/21 14:07:17;;;;;;;;;;;15.80;61.80;;;;;;4333378;33;20061;-75
2021/05/21 14:09:49;;;;;;;;;;;15.80;60.80;;;;;;4333413;33;20019;-75
2021/05/21 14:12:24;;;;;;;;;;;15.80;60.20;;;;;;4333783;33;20017;-77
2021/05/21 14:14:54;;;;;;;;;;;15.80;61.00;;;;;;4346664;33;20044;-75
2021/05/21 14:17:28;;;;;;;;;;;15.80;60.40;;;;;;4346656;33;20072;-76
2021/05/21 14:20:02;;;;;;;;;;;15.90;59.60;;;;;;4321106;33;20036;-75
2021/05/21 14:22:43;;;;;;;;;;;15.90;60.80;;;;;;4346954;33;20027;-76
2021/05/21 14:25:21;;;;;;;;;;;16.00;60.20;;;;;;4346557;33;20010;-76
2021/05/21 14:27:57;;;;;;;;;;;16.00;59.50;;;;;;4346603;33;20023;-75
2021/05/21 14:30:30;;;;;;;;;;;16.00;59.00;;;;;;4346132;33;20065;-75
2021/05/21 14:33:08;;;;;;;;;;;16.00;59.10;;;;;;4320986;33;20005;-78
2021/05/21 14:35:41;;;;;;;;;;;15.90;57.50;;;;;;4333127;33;20104;-76
2021/05/21 14:38:11;;;;;;;;;;;15.90;58.00;;;;;;4333355;33;20061;-77
2021/05/21 14:40:50;;;;;;;;;;;15.90;57.90;;;;;;4333128;33;20009;-77
2021/05/21 14:43:20;;;;;;;;;;;15.80;57.70;;;;;;4333550;33;20073;-76
2021/05/21 14:45:52;;;;;;;;;;;15.80;57.70;;;;;;4333100;33;20061;-76
2021/05/21 14:48:26;;;;;;;;;;;15.80;57.90;;;;;;4332821;33;20054;-76
2021/05/21 14:51:02;;;;;;;;;;;15.80;57.60;;;;;;4333030;33;19994;-76
2021/05/21 14:53:39;;;;;;;;;;;15.80;58.60;;;;;;4321604;33;20065;-75
2021/05/21 14:56:15;;;;;;;;;;;15.80;59.20;;;;;;4323007;33;20049;-75